Details for Air Canada Rouge at CYYZ




Go Back


Latest METAR
Local Time

CYYZ 212300Z 14009KT 15SM FEW280 20/05 A2991 RMK CI2 SLP130 DENSITY ALT 1300FT

21/06/2018, 19:37:14

Description
Results
Air Canada Rouge Logo
Number of Pilots based at CYYZ
0 Pilots Based here
Number of Air Canada Rouge Flights Departed from CYYZ
0 Flights Departed
Number of Air Canada Rouge Flights Arrived at CYYZ
0 Flights Arrived
Number of Air Canada Rouge Schedules Departing from CYYZ
87 Schedules
Number of Air Canada Rouge Schedules Arriving at CYYZ
92 Schedules
Number of Air Canada Rouge Schedules Departing from CYYZ availible today
47 Schedules Today
Number of Air Canada Rouge Schedules Arriving at CYYZ availible today
48 Schedules Today
Average Landing Rate at CYYZ
-298 fpm
Air Canada Rouge Average Landing Rate at CYYZ
0 fpm
Total Fuel Purchased at CYYZ by Air Canada Rouge
0.00 kgs / 0.00 lbs

Pilots Based at CYYZ


Pilot ID
Pilot Name
Pilot Rank
No. of Flights
No. of Flying Hours
There are no pilots assigned to this hub!   Will you be the first?
Content